createdAt,value
2019-05-02T00:01:32.256Z,14.00
2019-05-02T00:06:38.029Z,14.06
2019-05-02T00:11:40.471Z,14.13
2019-05-02T00:16:45.229Z,13.91
2019-05-02T00:21:47.533Z,13.76
2019-05-02T00:26:50.032Z,13.84
2019-05-02T00:31:52.549Z,13.62
2019-05-02T00:36:55.210Z,13.64
2019-05-02T00:41:57.977Z,13.63
2019-05-02T00:47:31.168Z,13.61
2019-05-02T00:52:36.693Z,13.63
2019-05-02T00:57:38.140Z,13.28
2019-05-02T01:02:46.767Z,13.64
2019-05-02T01:07:49.050Z,13.59
2019-05-02T01:12:51.296Z,13.51
2019-05-02T01:17:53.589Z,13.35
2019-05-02T01:22:55.749Z,13.17
2019-05-02T01:28:30.251Z,13.31
2019-05-02T01:33:41.660Z,13.32
2019-05-02T01:38:49.276Z,13.43
2019-05-02T01:43:55.078Z,13.29
2019-05-02T01:48:56.356Z,13.21
2019-05-02T01:53:58.525Z,13.19
2019-05-02T01:59:00.922Z,13.00
2019-05-02T02:04:03.254Z,12.88
2019-05-02T02:09:08.206Z,12.87
2019-05-02T02:14:12.856Z,12.86
2019-05-02T02:19:25.904Z,12.73
2019-05-02T02:24:32.936Z,12.47
2019-05-02T02:29:39.011Z,12.18
2019-05-02T02:34:39.179Z,12.05
2019-05-02T02:39:41.246Z,12.07
2019-05-02T02:44:50.109Z,12.09
2019-05-02T02:49:55.914Z,12.17
2019-05-02T02:54:56.874Z,12.21
2019-05-02T03:00:07.284Z,12.17
2019-05-02T03:05:04.349Z,12.27
2019-05-02T03:10:08.486Z,11.57
2019-05-02T03:15:14.522Z,11.79
2019-05-02T03:20:16.830Z,11.70
2019-05-02T03:25:25.138Z,11.55
2019-05-02T03:30:32.985Z,11.21
2019-05-02T03:35:41.835Z,11.36
2019-05-02T03:40:32.087Z,11.25
2019-05-02T03:45:39.989Z,11.04
2019-05-02T03:50:39.838Z,11.37
2019-05-02T03:55:45.761Z,11.15
2019-05-02T04:00:48.375Z,11.34
2019-05-02T04:05:51.111Z,11.34
2019-05-02T04:11:20.628Z,11.31
2019-05-02T04:16:27.790Z,11.23
2019-05-02T04:21:30.785Z,11.25
2019-05-02T04:26:33.301Z,11.38
2019-05-02T04:31:35.477Z,10.75
2019-05-02T04:36:37.882Z,11.51
2019-05-02T04:41:42.455Z,11.60
2019-05-02T04:46:44.498Z,11.37
2019-05-02T04:51:50.760Z,11.73
2019-05-02T04:56:55.138Z,11.77
2019-05-02T05:02:08.692Z,11.76
2019-05-02T05:07:10.683Z,11.81
2019-05-02T05:12:57.158Z,11.70
2019-05-02T05:18:10.526Z,11.71
2019-05-02T05:23:33.409Z,11.70
2019-05-02T05:28:48.834Z,11.64
2019-05-02T05:34:32.439Z,11.77
2019-05-02T05:40:01.674Z,11.76
2019-05-02T05:46:09.826Z,11.72
2019-05-02T05:51:27.896Z,11.82
2019-05-02T05:56:50.105Z,11.90
2019-05-02T06:02:05.449Z,11.71
2019-05-02T06:07:39.438Z,11.83
2019-05-02T06:12:45.705Z,12.06
2019-05-02T06:18:05.026Z,11.89
2019-05-02T06:23:20.066Z,12.23
2019-05-02T06:28:26.248Z,12.17
2019-05-02T06:33:32.374Z,12.41
2019-05-02T06:38:52.273Z,12.31
2019-05-02T06:44:00.549Z,12.61
2019-05-02T06:49:10.963Z,12.35
2019-05-02T06:54:35.603Z,12.41
2019-05-02T06:59:56.504Z,12.81
2019-05-02T07:05:05.443Z,12.80
2019-05-02T07:10:26.736Z,13.01
2019-05-02T07:15:43.914Z,12.89
2019-05-02T07:20:50.071Z,12.89
2019-05-02T07:25:54.832Z,13.12
2019-05-02T07:31:06.605Z,13.09
2019-05-02T07:36:19.197Z,13.37
2019-05-02T07:41:29.024Z,13.29
2019-05-02T07:46:35.395Z,13.75
2019-05-02T07:51:58.968Z,13.72
2019-05-02T07:57:18.309Z,13.63
2019-05-02T08:02:27.533Z,13.69
2019-05-02T08:07:36.916Z,13.72
2019-05-02T08:12:45.335Z,13.90
2019-05-02T08:18:03.448Z,13.88
2019-05-02T08:23:26.019Z,13.88
2019-05-02T08:28:39.070Z,14.10
2019-05-02T08:33:51.193Z,13.82
2019-05-02T08:39:05.359Z,13.81
2019-05-02T08:44:16.820Z,14.07
2019-05-02T08:49:21.977Z,13.65
2019-05-02T08:54:36.013Z,14.23
2019-05-02T08:59:50.658Z,14.28
2019-05-02T09:05:06.537Z,14.04
2019-05-02T09:10:16.553Z,14.37
2019-05-02T09:15:22.304Z,14.12
2019-05-02T09:20:35.282Z,13.64
2019-05-02T09:25:47.435Z,13.99
2019-05-02T09:31:06.355Z,14.59
2019-05-02T09:36:11.903Z,14.92
2019-05-02T09:41:20.153Z,14.45
2019-05-02T09:46:53.100Z,14.09
2019-05-02T09:52:12.454Z,15.10
2019-05-02T09:57:22.634Z,14.98
2019-05-02T10:02:41.955Z,14.76
2019-05-02T10:07:52.614Z,14.81
2019-05-02T10:13:25.616Z,14.88
2019-05-02T10:18:33.003Z,15.49
2019-05-02T10:23:53.727Z,15.26
2019-05-02T10:29:12.770Z,15.40
2019-05-02T10:34:36.358Z,15.72
2019-05-02T10:39:47.439Z,15.88
2019-05-02T10:45:25.446Z,16.04
2019-05-02T10:50:42.318Z,16.20
2019-05-02T10:56:05.931Z,16.28
2019-05-02T11:01:16.742Z,16.44
2019-05-02T11:12:02.522Z,16.53
2019-05-02T11:17:32.364Z,17.21
2019-05-02T11:22:48.399Z,17.43
2019-05-02T11:28:02.933Z,17.02
2019-05-02T11:33:49.043Z,17.00
2019-05-02T11:39:15.741Z,17.67
2019-05-02T11:44:38.384Z,17.44
2019-05-02T11:49:53.958Z,17.91
2019-05-02T11:55:24.737Z,17.27
2019-05-02T12:00:32.228Z,17.85
2019-05-02T12:05:42.743Z,18.11
2019-05-02T12:11:08.341Z,17.81
2019-05-02T12:16:22.991Z,17.65
2019-05-02T12:21:41.903Z,18.02
2019-05-02T12:26:53.892Z,18.20
2019-05-02T12:32:04.168Z,18.04
2019-05-02T12:37:17.340Z,18.03
2019-05-02T12:42:36.016Z,17.80
2019-05-02T12:47:53.032Z,17.73
2019-05-02T12:53:15.640Z,17.96
2019-05-02T12:58:24.423Z,17.72
2019-05-02T13:04:04.441Z,17.92
2019-05-02T13:09:12.930Z,17.89
2019-05-02T13:14:26.003Z,17.59
2019-05-02T13:19:55.827Z,17.82
2019-05-02T13:25:03.958Z,18.15
2019-05-02T13:30:23.526Z,17.79
2019-05-02T13:35:47.348Z,18.34
2019-05-02T13:41:03.565Z,18.41
2019-05-02T13:46:42.542Z,18.50
2019-05-02T13:51:57.889Z,18.26
2019-05-02T13:57:05.928Z,18.24
2019-05-02T14:02:37.841Z,18.86
2019-05-02T14:08:14.154Z,18.77
2019-05-02T14:13:33.873Z,19.05
2019-05-02T14:18:43.962Z,19.36
2019-05-02T14:24:05.774Z,18.77
2019-05-02T14:29:32.852Z,18.86
2019-05-02T14:35:03.862Z,18.96
2019-05-02T14:40:31.929Z,18.95
2019-05-02T14:46:08.611Z,19.24
2019-05-02T14:51:41.845Z,19.90
2019-05-02T14:57:22.927Z,20.63
2019-05-02T15:02:51.990Z,19.46
2019-05-02T15:08:24.753Z,19.52
2019-05-02T15:14:04.731Z,20.59
2019-05-02T15:19:22.956Z,21.14
2019-05-02T15:24:57.626Z,20.90
2019-05-02T15:30:44.824Z,21.95
2019-05-02T15:36:14.519Z,20.52
2019-05-02T15:47:17.534Z,19.19
2019-05-02T15:52:49.244Z,18.72
2019-05-02T15:58:09.382Z,18.30
2019-05-02T16:03:19.889Z,18.25
2019-05-02T16:08:37.557Z,18.15
2019-05-02T16:13:55.802Z,18.01
2019-05-02T16:19:28.562Z,17.93
2019-05-02T16:24:36.937Z,17.97
2019-05-02T16:29:58.263Z,17.94
2019-05-02T16:35:22.283Z,17.80
2019-05-02T16:40:37.489Z,17.81
2019-05-02T16:45:56.807Z,17.72
2019-05-02T16:51:27.679Z,17.73
2019-05-02T16:56:31.614Z,17.68
2019-05-02T17:01:44.545Z,17.64
2019-05-02T17:07:02.182Z,17.58
2019-05-02T17:12:20.659Z,17.57
2019-05-02T17:17:38.914Z,17.57
2019-05-02T17:22:51.029Z,17.72
2019-05-02T17:28:06.991Z,17.73
2019-05-02T17:33:17.345Z,17.69
2019-05-02T17:38:30.523Z,17.58
2019-05-02T17:43:59.159Z,17.44
2019-05-02T17:49:11.886Z,17.28
2019-05-02T17:54:26.772Z,17.25
2019-05-02T17:59:37.734Z,17.14
2019-05-02T18:04:46.512Z,17.12
2019-05-02T18:09:57.319Z,16.86
2019-05-02T18:15:07.586Z,16.85
2019-05-02T18:20:12.416Z,16.70
2019-05-02T18:25:31.408Z,16.62
2019-05-02T18:31:05.744Z,16.56
2019-05-02T18:36:34.437Z,16.43
2019-05-02T18:42:00.789Z,16.43
2019-05-02T18:47:12.461Z,16.26
2019-05-02T18:52:23.763Z,16.26
2019-05-02T18:57:29.384Z,16.15
2019-05-02T19:02:35.409Z,16.15
2019-05-02T19:07:36.658Z,16.10
2019-05-02T19:13:00.979Z,15.97
2019-05-02T19:18:04.606Z,15.79
2019-05-02T19:23:22.489Z,15.76
2019-05-02T19:28:55.845Z,15.67
2019-05-02T19:34:08.438Z,15.49
2019-05-02T19:39:23.953Z,15.59
2019-05-02T19:44:42.169Z,15.29
2019-05-02T19:49:52.422Z,14.97
2019-05-02T19:55:01.393Z,14.78
2019-05-02T20:00:09.326Z,14.70
2019-05-02T20:05:16.483Z,14.62
2019-05-02T20:10:17.894Z,14.45
2019-05-02T20:16:02.532Z,14.37
2019-05-02T20:21:33.559Z,14.41
2019-05-02T20:26:36.857Z,14.01
2019-05-02T20:31:39.827Z,14.19
2019-05-02T20:36:42.575Z,14.16
2019-05-02T20:41:47.159Z,14.06
2019-05-02T20:46:51.566Z,13.94
2019-05-02T20:51:53.751Z,13.90
2019-05-02T20:56:58.304Z,13.73
2019-05-02T21:02:01.744Z,13.87
2019-05-02T21:07:14.928Z,13.86
2019-05-02T21:12:17.124Z,13.84
2019-05-02T21:17:19.476Z,13.72
2019-05-02T21:22:26.215Z,13.92
2019-05-02T21:27:28.408Z,13.98
2019-05-02T21:32:32.154Z,13.57
2019-05-02T21:37:34.381Z,13.50
2019-05-02T21:42:37.036Z,13.27
2019-05-02T21:47:39.263Z,13.28
2019-05-02T21:53:03.917Z,13.40
2019-05-02T21:58:06.198Z,13.33
2019-05-02T22:03:09.362Z,13.43
2019-05-02T22:08:13.539Z,13.46
2019-05-02T22:13:15.740Z,13.33
2019-05-02T22:18:18.097Z,13.14
2019-05-02T22:23:20.338Z,13.10
2019-05-02T22:28:22.524Z,12.93
2019-05-02T22:33:24.766Z,13.01
2019-05-02T22:38:48.393Z,12.85
2019-05-02T22:43:50.535Z,12.87
2019-05-02T22:48:52.980Z,12.89
2019-05-02T22:53:55.239Z,13.13
2019-05-02T22:58:57.328Z,12.83
2019-05-02T23:03:59.511Z,12.90
2019-05-02T23:09:02.018Z,12.83
2019-05-02T23:14:05.176Z,12.71
2019-05-02T23:19:07.318Z,12.75
2019-05-02T23:24:15.448Z,12.82
2019-05-02T23:29:18.103Z,12.64
2019-05-02T23:34:23.380Z,12.77
2019-05-02T23:39:24.843Z,12.66
2019-05-02T23:44:26.988Z,12.47
2019-05-02T23:49:29.231Z,12.44
2019-05-02T23:54:32.426Z,12.60
2019-05-02T23:59:34.753Z,12.56
